sensor_id;sensor_type;location;lat;lon;timestamp;pressure;altitude;pressure_sealevel;temperature;humidity
79799;BME280;69283;48.024;11.090;2023-07-13T00:00:27;95382.41;;;18.01;85.44
79799;BME280;69283;48.024;11.090;2023-07-13T00:02:52;95374.66;;;18.06;85.34
79799;BME280;69283;48.024;11.090;2023-07-13T00:05:21;95384.06;;;18.09;84.81
79799;BME280;69283;48.024;11.090;2023-07-13T00:07:48;95380.53;;;18.08;84.97
79799;BME280;69283;48.024;11.090;2023-07-13T00:10:14;95372.31;;;18.12;84.95
79799;BME280;69283;48.024;11.090;2023-07-13T00:12:39;95375.03;;;18.08;85.50
79799;BME280;69283;48.024;11.090;2023-07-13T00:15:10;95359.00;;;18.10;85.38
79799;BME280;69283;48.024;11.090;2023-07-13T00:17:37;95354.69;;;18.09;85.01
79799;BME280;69283;48.024;11.090;2023-07-13T00:20:04;95350.38;;;18.15;85.06
79799;BME280;69283;48.024;11.090;2023-07-13T00:22:29;95351.16;;;18.12;85.17
79799;BME280;69283;48.024;11.090;2023-07-13T00:24:55;95356.66;;;18.16;85.08
79799;BME280;69283;48.024;11.090;2023-07-13T00:27:23;95360.59;;;18.18;85.34
79799;BME280;69283;48.024;11.090;2023-07-13T00:29:51;95366.13;;;18.22;85.13
79799;BME280;69283;48.024;11.090;2023-07-13T00:32:17;95366.13;;;18.26;85.30
79799;BME280;69283;48.024;11.090;2023-07-13T00:34:43;95366.91;;;18.30;84.67
79799;BME280;69283;48.024;11.090;2023-07-13T00:37:08;95355.53;;;18.24;84.25
79799;BME280;69283;48.024;11.090;2023-07-13T00:39:34;95357.50;;;18.23;84.49
79799;BME280;69283;48.024;11.090;2023-07-13T00:42:01;95356.72;;;18.23;83.92
79799;BME280;69283;48.024;11.090;2023-07-13T00:44:27;95360.59;;;18.18;84.18
79799;BME280;69283;48.024;11.090;2023-07-13T00:46:52;95361.34;;;18.15;84.18
79799;BME280;69283;48.024;11.090;2023-07-13T00:49:23;95352.72;;;18.13;84.88
79799;BME280;69283;48.024;11.090;2023-07-13T00:51:51;95354.31;;;18.14;85.03
79799;BME280;69283;48.024;11.090;2023-07-13T00:54:27;95354.31;;;18.14;85.50
79799;BME280;69283;48.024;11.090;2023-07-13T00:56:57;95359.38;;;18.12;85.21
79799;BME280;69283;48.024;11.090;2023-07-13T00:59:24;95359.38;;;18.12;85.25
79799;BME280;69283;48.024;11.090;2023-07-13T01:01:49;95355.88;;;18.15;85.04
79799;BME280;69283;48.024;11.090;2023-07-13T01:04:16;95362.16;;;18.16;84.52
79799;BME280;69283;48.024;11.090;2023-07-13T01:06:41;95374.69;;;18.20;84.41
79799;BME280;69283;48.024;11.090;2023-07-13T01:09:09;95367.63;;;18.19;84.32
79799;BME280;69283;48.024;11.090;2023-07-13T01:11:35;95373.47;;;18.11;85.11
79799;BME280;69283;48.024;11.090;2023-07-13T01:14:01;95367.63;;;18.12;85.31
79799;BME280;69283;48.024;11.090;2023-07-13T01:16:30;95369.16;;;18.10;85.84
79799;BME280;69283;48.024;11.090;2023-07-13T01:18:56;95349.22;;;18.13;85.89
79799;BME280;69283;48.024;11.090;2023-07-13T01:21:28;95337.06;;;18.10;85.48
79799;BME280;69283;48.024;11.090;2023-07-13T01:23:53;95330.78;;;18.10;84.68
79799;BME280;69283;48.024;11.090;2023-07-13T01:26:19;95315.09;;;18.07;84.31
79799;BME280;69283;48.024;11.090;2023-07-13T01:28:44;95290.03;;;18.05;83.45
79799;BME280;69283;48.024;11.090;2023-07-13T01:31:10;95295.13;;;18.03;84.08
79799;BME280;69283;48.024;11.090;2023-07-13T01:33:37;95313.88;;;18.01;84.41
79799;BME280;69283;48.024;11.090;2023-07-13T01:36:03;95324.50;;;18.02;84.41
79799;BME280;69283;48.024;11.090;2023-07-13T01:38:28;95339.00;;;18.03;84.16
79799;BME280;69283;48.024;11.090;2023-07-13T01:40:54;95329.16;;;17.98;85.06
79799;BME280;69283;48.024;11.090;2023-07-13T01:43:20;95331.88;;;17.98;84.40
79799;BME280;69283;48.024;11.090;2023-07-13T01:45:46;95331.09;;;17.98;84.29
79799;BME280;69283;48.024;11.090;2023-07-13T01:48:12;95326.00;;;17.92;84.56
79799;BME280;69283;48.024;11.090;2023-07-13T01:50:38;95325.19;;;17.88;84.19
79799;BME280;69283;48.024;11.090;2023-07-13T01:53:03;95323.59;;;17.84;84.28
79799;BME280;69283;48.024;11.090;2023-07-13T01:55:29;95326.72;;;17.82;84.39
79799;BME280;69283;48.024;11.090;2023-07-13T01:57:55;95337.31;;;17.84;84.88
79799;BME280;69283;48.024;11.090;2023-07-13T02:00:21;95341.22;;;17.83;85.12
79799;BME280;69283;48.024;11.090;2023-07-13T02:02:47;95354.16;;;17.86;85.29
79799;BME280;69283;48.024;11.090;2023-07-13T02:05:13;95350.94;;;17.77;85.71
79799;BME280;69283;48.024;11.090;2023-07-13T02:07:39;95358.78;;;17.78;85.80
79799;BME280;69283;48.024;11.090;2023-07-13T02:10:08;95362.69;;;17.77;86.15
79799;BME280;69283;48.024;11.090;2023-07-13T02:12:34;95364.28;;;17.82;85.57
79799;BME280;69283;48.024;11.090;2023-07-13T02:14:59;95364.66;;;17.80;85.68
79799;BME280;69283;48.024;11.090;2023-07-13T02:17:26;95365.06;;;17.79;85.67
79799;BME280;69283;48.024;11.090;2023-07-13T02:19:52;95374.47;;;17.81;85.31
79799;BME280;69283;48.024;11.090;2023-07-13T02:22:17;95379.53;;;17.79;85.27
79799;BME280;69283;48.024;11.090;2023-07-13T02:24:42;95388.53;;;17.76;84.68
79799;BME280;69283;48.024;11.090;2023-07-13T02:27:07;95392.31;;;17.61;84.31
79799;BME280;69283;48.024;11.090;2023-07-13T02:29:33;95406.22;;;17.42;85.16
79799;BME280;69283;48.024;11.090;2023-07-13T02:31:58;95404.66;;;17.41;85.11
79799;BME280;69283;48.024;11.090;2023-07-13T02:34:23;95400.72;;;17.38;84.67
79799;BME280;69283;48.024;11.090;2023-07-13T02:36:49;95404.97;;;17.32;84.83
79799;BME280;69283;48.024;11.090;2023-07-13T02:39:14;95402.66;;;17.34;84.82
79799;BME280;69283;48.024;11.090;2023-07-13T02:41:40;95411.22;;;17.29;85.36
79799;BME280;69283;48.024;11.090;2023-07-13T02:44:05;95409.28;;;17.33;85.27
79799;BME280;69283;48.024;11.090;2023-07-13T02:46:34;95406.91;;;17.28;85.01
79799;BME280;69283;48.024;11.090;2023-07-13T02:49:00;95410.06;;;17.30;84.74
79799;BME280;69283;48.024;11.090;2023-07-13T02:51:25;95408.88;;;17.27;84.65
79799;BME280;69283;48.024;11.090;2023-07-13T02:53:51;95402.97;;;17.25;84.36
79799;BME280;69283;48.024;11.090;2023-07-13T02:56:18;95417.00;;;17.20;84.33
79799;BME280;69283;48.024;11.090;2023-07-13T02:58:44;95425.84;;;17.03;85.03
79799;BME280;69283;48.024;11.090;2023-07-13T03:01:10;95424.63;;;17.00;84.93
79799;BME280;69283;48.024;11.090;2023-07-13T03:03:36;95426.16;;;16.98;85.07
79799;BME280;69283;48.024;11.090;2023-07-13T03:06:03;95419.13;;;17.00;85.27
79799;BME280;69283;48.024;11.090;2023-07-13T03:08:30;95411.78;;;17.05;84.79
79799;BME280;69283;48.024;11.090;2023-07-13T03:11:08;95422.38;;;17.10;85.55
79799;BME280;69283;48.024;11.090;2023-07-13T03:13:35;95427.91;;;17.17;85.54
79799;BME280;69283;48.024;11.090;2023-07-13T03:16:01;95429.06;;;17.16;85.17
79799;BME280;69283;48.024;11.090;2023-07-13T03:18:27;95433.38;;;17.17;85.00
79799;BME280;69283;48.024;11.090;2023-07-13T03:20:53;95434.13;;;17.10;85.21
79799;BME280;69283;48.024;11.090;2023-07-13T03:23:20;95443.13;;;17.11;84.50
79799;BME280;69283;48.024;11.090;2023-07-13T03:25:46;95437.97;;;17.06;84.25
79799;BME280;69283;48.024;11.090;2023-07-13T03:28:12;95426.94;;;16.98;84.41
79799;BME280;69283;48.024;11.090;2023-07-13T03:30:37;95428.81;;;16.91;84.80
79799;BME280;69283;48.024;11.090;2023-07-13T03:33:03;95430.03;;;16.93;84.91
79799;BME280;69283;48.024;11.090;2023-07-13T03:35:28;95431.56;;;16.91;84.62
79799;BME280;69283;48.024;11.090;2023-07-13T03:37:54;95429.19;;;16.89;85.08
79799;BME280;69283;48.024;11.090;2023-07-13T03:40:19;95427.59;;;16.85;84.74
79799;BME280;69283;48.024;11.090;2023-07-13T03:42:44;95428.78;;;16.87;84.91
79799;BME280;69283;48.024;11.090;2023-07-13T03:45:09;95426.50;;;16.93;83.76
79799;BME280;69283;48.024;11.090;2023-07-13T03:47:35;95430.03;;;16.93;83.96
79799;BME280;69283;48.024;11.090;2023-07-13T03:50:00;95437.06;;;16.94;84.54
79799;BME280;69283;48.024;11.090;2023-07-13T03:52:26;95441.38;;;16.95;85.04
79799;BME280;69283;48.024;11.090;2023-07-13T03:54:51;95438.47;;;16.81;84.42
79799;BME280;69283;48.024;11.090;2023-07-13T03:57:16;95447.13;;;16.83;84.89
79799;BME280;69283;48.024;11.090;2023-07-13T03:59:42;95443.22;;;16.84;84.07
79799;BME280;69283;48.024;11.090;2023-07-13T04:02:08;95433.84;;;16.85;84.71
79799;BME280;69283;48.024;11.090;2023-07-13T04:04:33;95431.53;;;16.87;84.95
79799;BME280;69283;48.024;11.090;2023-07-13T04:06:58;95434.34;;;16.94;85.07
79799;BME280;69283;48.024;11.090;2023-07-13T04:09:25;95442.56;;;16.98;85.07
79799;BME280;69283;48.024;11.090;2023-07-13T04:11:50;95438.69;;;16.99;85.26
79799;BME280;69283;48.024;11.090;2023-07-13T04:14:16;95439.88;;;17.01;85.13
79799;BME280;69283;48.024;11.090;2023-07-13T04:16:42;95450.81;;;17.01;85.21
79799;BME280;69283;48.024;11.090;2023-07-13T04:19:08;95452.78;;;17.01;85.22
79799;BME280;69283;48.024;11.090;2023-07-13T04:21:35;95461.78;;;17.01;85.36
79799;BME280;69283;48.024;11.090;2023-07-13T04:24:01;95457.47;;;17.00;85.37
79799;BME280;69283;48.024;11.090;2023-07-13T04:26:26;95457.84;;;16.99;85.41
79799;BME280;69283;48.024;11.090;2023-07-13T04:28:52;95467.25;;;17.01;85.46
79799;BME280;69283;48.024;11.090;2023-07-13T04:31:17;95473.88;;;17.00;85.62
79799;BME280;69283;48.024;11.090;2023-07-13T04:33:43;95484.13;;;17.03;85.71
79799;BME280;69283;48.024;11.090;2023-07-13T04:36:09;95469.28;;;17.08;85.59
79799;BME280;69283;48.024;11.090;2023-07-13T04:38:35;95481.06;;;17.12;85.64
79799;BME280;69283;48.024;11.090;2023-07-13T04:41:03;95474.47;;;17.17;86.08
79799;BME280;69283;48.024;11.090;2023-07-13T04:43:30;95474.13;;;17.22;85.46
79799;BME280;69283;48.024;11.090;2023-07-13T04:45:56;95480.47;;;17.29;85.24
79799;BME280;69283;48.024;11.090;2023-07-13T04:48:22;95477.75;;;17.33;85.04
79799;BME280;69283;48.024;11.090;2023-07-13T04:50:55;95472.69;;;17.35;84.97
79799;BME280;69283;48.024;11.090;2023-07-13T04:53:20;95468.78;;;17.36;85.49
79799;BME280;69283;48.024;11.090;2023-07-13T04:55:46;95474.69;;;17.38;84.92
79799;BME280;69283;48.024;11.090;2023-07-13T04:58:12;95483.66;;;17.35;85.27
79799;BME280;69283;48.024;11.090;2023-07-13T05:00:37;95485.94;;;17.29;85.37
79799;BME280;69283;48.024;11.090;2023-07-13T05:03:03;95481.97;;;17.23;85.92
79799;BME280;69283;48.024;11.090;2023-07-13T05:05:29;95481.53;;;17.21;85.59
79799;BME280;69283;48.024;11.090;2023-07-13T05:07:54;95481.19;;;17.23;85.97
79799;BME280;69283;48.024;11.090;2023-07-13T05:10:20;95490.91;;;17.20;85.80
79799;BME280;69283;48.024;11.090;2023-07-13T05:12:45;95487.47;;;17.23;85.47
79799;BME280;69283;48.024;11.090;2023-07-13T05:15:11;95482.44;;;17.29;85.58
79799;BME280;69283;48.024;11.090;2023-07-13T05:17:36;95482.06;;;17.34;84.68
79799;BME280;69283;48.024;11.090;2023-07-13T05:20:04;95481.44;;;17.48;84.19
79799;BME280;69283;48.024;11.090;2023-07-13T05:22:30;95476.88;;;17.62;83.94
79799;BME280;69283;48.024;11.090;2023-07-13T05:24:56;95481.31;;;17.74;84.62
79799;BME280;69283;48.024;11.090;2023-07-13T05:27:21;95484.59;;;17.94;85.93
79799;BME280;69283;48.024;11.090;2023-07-13T05:29:46;95485.53;;;18.12;84.15
79799;BME280;69283;48.024;11.090;2023-07-13T05:32:12;95487.13;;;18.17;83.52
79799;BME280;69283;48.024;11.090;2023-07-13T05:34:37;95489.06;;;18.16;82.85
79799;BME280;69283;48.024;11.090;2023-07-13T05:37:02;95496.59;;;18.27;81.86
79799;BME280;69283;48.024;11.090;2023-07-13T05:39:28;95498.19;;;18.28;81.33
79799;BME280;69283;48.024;11.090;2023-07-13T05:41:54;95489.56;;;18.29;81.34
79799;BME280;69283;48.024;11.090;2023-07-13T05:44:19;95501.31;;;18.30;81.09
79799;BME280;69283;48.024;11.090;2023-07-13T05:46:44;95493.88;;;18.30;81.57
79799;BME280;69283;48.024;11.090;2023-07-13T05:49:10;95493.09;;;18.30;81.56
79799;BME280;69283;48.024;11.090;2023-07-13T05:51:35;95493.06;;;18.26;82.21
79799;BME280;69283;48.024;11.090;2023-07-13T05:54:00;95503.66;;;18.24;82.65
79799;BME280;69283;48.024;11.090;2023-07-13T05:56:26;95510.31;;;18.23;82.46
79799;BME280;69283;48.024;11.090;2023-07-13T05:58:51;95500.84;;;18.20;82.66
79799;BME280;69283;48.024;11.090;2023-07-13T06:01:16;95509.44;;;18.15;81.75
79799;BME280;69283;48.024;11.090;2023-07-13T06:03:43;95509.84;;;18.17;80.93
79799;BME280;69283;48.024;11.090;2023-07-13T06:06:09;95514.94;;;18.15;81.73
79799;BME280;69283;48.024;11.090;2023-07-13T06:08:35;95519.63;;;18.15;81.81
79799;BME280;69283;48.024;11.090;2023-07-13T06:11:09;95530.94;;;18.10;81.39
79799;BME280;69283;48.024;11.090;2023-07-13T06:13:37;95529.75;;;18.04;81.46
79799;BME280;69283;48.024;11.090;2023-07-13T06:16:03;95528.50;;;18.01;81.29
79799;BME280;69283;48.024;11.090;2023-07-13T06:18:33;95538.28;;;17.99;81.34
79799;BME280;69283;48.024;11.090;2023-07-13T06:20:58;95539.78;;;17.89;81.26
79799;BME280;69283;48.024;11.090;2023-07-13T06:23:24;95548.00;;;17.89;81.60
79799;BME280;69283;48.024;11.090;2023-07-13T06:25:50;95550.38;;;17.90;82.17
79799;BME280;69283;48.024;11.090;2023-07-13T06:28:15;95545.28;;;17.89;81.79
79799;BME280;69283;48.024;11.090;2023-07-13T06:30:40;95555.47;;;17.92;83.05
79799;BME280;69283;48.024;11.090;2023-07-13T06:33:06;95563.28;;;17.90;82.81
79799;BME280;69283;48.024;11.090;2023-07-13T06:35:31;95560.97;;;17.92;82.45
79799;BME280;69283;48.024;11.090;2023-07-13T06:37:57;95570.34;;;17.91;81.75
79799;BME280;69283;48.024;11.090;2023-07-13T06:40:22;95568.72;;;17.83;82.50
79799;BME280;69283;48.024;11.090;2023-07-13T06:42:47;95577.19;;;17.71;80.25
79799;BME280;69283;48.024;11.090;2023-07-13T06:45:13;95577.81;;;17.60;80.34
79799;BME280;69283;48.024;11.090;2023-07-13T06:47:38;95574.28;;;17.56;79.00
79799;BME280;69283;48.024;11.090;2023-07-13T06:50:03;95564.00;;;17.46;78.18
79799;BME280;69283;48.024;11.090;2023-07-13T06:52:29;95572.91;;;17.40;77.11
79799;BME280;69283;48.024;11.090;2023-07-13T06:54:54;95569.69;;;17.30;75.84
79799;BME280;69283;48.024;11.090;2023-07-13T06:57:20;95565.34;;;17.26;76.19
79799;BME280;69283;48.024;11.090;2023-07-13T06:59:45;95564.06;;;17.20;75.05
79799;BME280;69283;48.024;11.090;2023-07-13T07:02:10;95571.09;;;17.17;76.09
79799;BME280;69283;48.024;11.090;2023-07-13T07:04:36;95575.78;;;17.17;75.54
79799;BME280;69283;48.024;11.090;2023-07-13T07:07:02;95583.66;;;17.22;76.86
79799;BME280;69283;48.024;11.090;2023-07-13T07:09:27;95577.34;;;17.18;77.68
79799;BME280;69283;48.024;11.090;2023-07-13T07:11:55;95582.78;;;17.14;76.76
79799;BME280;69283;48.024;11.090;2023-07-13T07:14:20;95580.41;;;17.13;76.89
79799;BME280;69283;48.024;11.090;2023-07-13T07:16:46;95589.78;;;17.12;77.59
79799;BME280;69283;48.024;11.090;2023-07-13T07:19:11;95590.53;;;17.09;77.69
79799;BME280;69283;48.024;11.090;2023-07-13T07:21:36;95587.81;;;17.09;77.31
79799;BME280;69283;48.024;11.090;2023-07-13T07:24:02;95583.50;;;17.08;77.68
79799;BME280;69283;48.024;11.090;2023-07-13T07:26:28;95588.59;;;17.09;77.51
79799;BME280;69283;48.024;11.090;2023-07-13T07:28:53;95587.81;;;17.09;76.70
79799;BME280;69283;48.024;11.090;2023-07-13T07:31:19;95589.00;;;17.11;76.99
79799;BME280;69283;48.024;11.090;2023-07-13T07:33:44;95593.63;;;17.03;77.91
79799;BME280;69283;48.024;11.090;2023-07-13T07:36:10;95599.38;;;16.98;77.07
79799;BME280;69283;48.024;11.090;2023-07-13T07:38:36;95598.16;;;16.92;76.73
79799;BME280;69283;48.024;11.090;2023-07-13T07:41:05;95600.09;;;16.92;77.87
79799;BME280;69283;48.024;11.090;2023-07-13T07:43:30;95601.72;;;16.96;78.21
79799;BME280;69283;48.024;11.090;2023-07-13T07:45:56;95614.56;;;16.92;78.50
79799;BME280;69283;48.024;11.090;2023-07-13T07:48:21;95620.03;;;16.92;78.64
79799;BME280;69283;48.024;11.090;2023-07-13T07:50:47;95618.47;;;16.91;78.11
79799;BME280;69283;48.024;11.090;2023-07-13T07:53:12;95618.47;;;16.91;79.40
79799;BME280;69283;48.024;11.090;2023-07-13T07:55:38;95613.03;;;16.95;79.12
79799;BME280;69283;48.024;11.090;2023-07-13T07:58:05;95615.03;;;16.98;78.94
79799;BME280;69283;48.024;11.090;2023-07-13T08:00:31;95614.28;;;17.01;79.00
79799;BME280;69283;48.024;11.090;2023-07-13T08:02:57;95617.91;;;17.09;79.43
79799;BME280;69283;48.024;11.090;2023-07-13T08:05:22;95625.75;;;17.10;78.62
79799;BME280;69283;48.024;11.090;2023-07-13T08:07:48;95624.22;;;17.13;78.36
79799;BME280;69283;48.024;11.090;2023-07-13T08:10:13;95627.00;;;17.16;77.77
79799;BME280;69283;48.024;11.090;2023-07-13T08:12:40;95629.78;;;17.20;77.88
79799;BME280;69283;48.024;11.090;2023-07-13T08:15:07;95631.34;;;17.21;77.25
79799;BME280;69283;48.024;11.090;2023-07-13T08:17:34;95638.00;;;17.20;76.91
79799;BME280;69283;48.024;11.090;2023-07-13T08:19:59;95633.44;;;17.27;77.59
79799;BME280;69283;48.024;11.090;2023-07-13T08:22:24;95633.50;;;17.34;77.97
79799;BME280;69283;48.024;11.090;2023-07-13T08:24:50;95635.53;;;17.41;77.51
79799;BME280;69283;48.024;11.090;2023-07-13T08:27:21;95641.00;;;17.41;77.55
79799;BME280;69283;48.024;11.090;2023-07-13T08:29:47;95645.63;;;17.33;77.10
79799;BME280;69283;48.024;11.090;2023-07-13T08:32:13;95639.34;;;17.33;76.75
79799;BME280;69283;48.024;11.090;2023-07-13T08:34:39;95644.84;;;17.33;76.95
79799;BME280;69283;48.024;11.090;2023-07-13T08:37:04;95638.19;;;17.34;75.81
79799;BME280;69283;48.024;11.090;2023-07-13T08:39:30;95639.03;;;17.38;77.55
79799;BME280;69283;48.024;11.090;2023-07-13T08:42:00;95644.91;;;17.40;78.35
79799;BME280;69283;48.024;11.090;2023-07-13T08:47:14;95636.38;;;17.45;77.58
79799;BME280;69283;48.024;11.090;2023-07-13T08:49:41;95648.16;;;17.49;77.65
79799;BME280;69283;48.024;11.090;2023-07-13T08:52:12;95647.75;;;17.47;77.28
79799;BME280;69283;48.024;11.090;2023-07-13T08:54:49;95649.75;;;17.50;77.27
79799;BME280;69283;48.024;11.090;2023-07-13T08:57:19;95651.31;;;17.51;76.06
79799;BME280;69283;48.024;11.090;2023-07-13T08:59:46;95654.88;;;17.55;76.38
79799;BME280;69283;48.024;11.090;2023-07-13T09:02:46;95647.50;;;17.59;77.22
79799;BME280;69283;48.024;11.090;2023-07-13T09:05:28;95646.66;;;17.55;76.05
79799;BME280;69283;48.024;11.090;2023-07-13T09:10:53;95657.78;;;17.66;77.98
79799;BME280;69283;48.024;11.090;2023-07-13T09:13:26;95654.75;;;17.75;77.57
79799;BME280;69283;48.024;11.090;2023-07-13T09:15:55;95655.56;;;17.79;76.73
79799;BME280;69283;48.024;11.090;2023-07-13T09:18:38;95660.38;;;17.85;76.05
79799;BME280;69283;48.024;11.090;2023-07-13T09:21:12;95650.97;;;17.86;75.32
79799;BME280;69283;48.024;11.090;2023-07-13T09:23:39;95661.94;;;17.86;73.93
79799;BME280;69283;48.024;11.090;2023-07-13T09:26:14;95656.53;;;17.93;71.97
79799;BME280;69283;48.024;11.090;2023-07-13T09:28:45;95660.88;;;17.98;70.96
79799;BME280;69283;48.024;11.090;2023-07-13T09:33:42;95648.91;;;18.13;71.74
79799;BME280;69283;48.024;11.090;2023-07-13T09:36:34;95647.44;;;18.23;66.37
79799;BME280;69283;48.024;11.090;2023-07-13T09:39:05;95654.97;;;18.33;65.51
79799;BME280;69283;48.024;11.090;2023-07-13T09:41:47;95656.63;;;18.45;66.66
79799;BME280;69283;48.024;11.090;2023-07-13T09:44:15;95659.06;;;18.57;62.53
79799;BME280;69283;48.024;11.090;2023-07-13T09:46:54;95663.88;;;18.64;64.88
79799;BME280;69283;48.024;11.090;2023-07-13T09:49:27;95661.22;;;18.78;61.54
79799;BME280;69283;48.024;11.090;2023-07-13T09:52:00;95661.34;;;18.96;64.91
79799;BME280;69283;48.024;11.090;2023-07-13T09:54:27;95659.06;;;19.05;59.05
79799;BME280;69283;48.024;11.090;2023-07-13T09:56:57;95648.91;;;19.09;58.46
79799;BME280;69283;48.024;11.090;2023-07-13T09:59:26;95652.13;;;19.25;58.06
79799;BME280;69283;48.024;11.090;2023-07-13T10:01:52;95656.06;;;19.31;57.81
79799;BME280;69283;48.024;11.090;2023-07-13T10:04:19;95659.28;;;19.44;59.01
79799;BME280;69283;48.024;11.090;2023-07-13T10:06:45;95655.81;;;19.54;55.91
79799;BME280;69283;48.024;11.090;2023-07-13T10:09:15;95660.97;;;19.63;57.48
79799;BME280;69283;48.024;11.090;2023-07-13T10:11:41;95650.78;;;19.74;53.37
79799;BME280;69283;48.024;11.090;2023-07-13T10:14:16;95650.06;;;19.84;52.63
79799;BME280;69283;48.024;11.090;2023-07-13T10:16:43;95651.66;;;19.99;54.97
79799;BME280;69283;48.024;11.090;2023-07-13T10:19:17;95659.94;;;20.17;56.41
79799;BME280;69283;48.024;11.090;2023-07-13T10:21:57;95659.97;;;20.31;52.53
79799;BME280;69283;48.024;11.090;2023-07-13T10:24:36;95669.81;;;20.25;49.94
79799;BME280;69283;48.024;11.090;2023-07-13T10:27:17;95667.44;;;20.31;49.45
79799;BME280;69283;48.024;11.090;2023-07-13T10:29:51;95667.06;;;20.32;48.10
79799;BME280;69283;48.024;11.090;2023-07-13T10:32:21;95670.97;;;20.24;46.90
79799;BME280;69283;48.024;11.090;2023-07-13T10:34:49;95671.78;;;20.32;52.66
79799;BME280;69283;48.024;11.090;2023-07-13T10:37:23;95667.06;;;20.36;60.19
79799;BME280;69283;48.024;11.090;2023-07-13T10:39:54;95669.81;;;20.36;60.58
79799;BME280;69283;48.024;11.090;2023-07-13T10:42:28;95675.28;;;20.15;59.14
79799;BME280;69283;48.024;11.090;2023-07-13T10:44:54;95670.19;;;20.31;56.57
79799;BME280;69283;48.024;11.090;2023-07-13T10:47:19;95670.59;;;20.29;55.29
79799;BME280;69283;48.024;11.090;2023-07-13T10:49:46;95669.47;;;20.48;58.33
79799;BME280;69283;48.024;11.090;2023-07-13T10:52:52;95673.00;;;20.74;54.21
79799;BME280;69283;48.024;11.090;2023-07-13T10:58:28;95669.06;;;21.03;50.41
79799;BME280;69283;48.024;11.090;2023-07-13T11:03:19;95667.03;;;21.43;51.39
79799;BME280;69283;48.024;11.090;2023-07-13T11:05:49;95678.47;;;21.38;51.97
79799;BME280;69283;48.024;11.090;2023-07-13T11:08:33;95674.94;;;21.30;54.56
79799;BME280;69283;48.024;11.090;2023-07-13T11:10:59;95676.91;;;21.08;54.44
79799;BME280;69283;48.024;11.090;2023-07-13T11:16:12;95666.69;;;20.94;55.76
79799;BME280;69283;48.024;11.090;2023-07-13T11:18:38;95671.81;;;20.82;53.50
79799;BME280;69283;48.024;11.090;2023-07-13T11:21:21;95669.06;;;20.46;52.55
79799;BME280;69283;48.024;11.090;2023-07-13T11:24:01;95660.03;;;20.49;53.17
79799;BME280;69283;48.024;11.090;2023-07-13T11:29:25;95665.13;;;20.79;50.14
79799;BME280;69283;48.024;11.090;2023-07-13T11:31:53;95663.94;;;20.98;52.94
79799;BME280;69283;48.024;11.090;2023-07-13T11:34:35;95660.38;;;21.15;52.70
79799;BME280;69283;48.024;11.090;2023-07-13T11:37:02;95660.00;;;21.28;51.25
79799;BME280;69283;48.024;11.090;2023-07-13T11:39:34;95661.53;;;21.36;51.05
79799;BME280;69283;48.024;11.090;2023-07-13T11:42:03;95661.50;;;21.50;50.49
79799;BME280;69283;48.024;11.090;2023-07-13T11:44:30;95662.22;;;21.68;50.16
79799;BME280;69283;48.024;11.090;2023-07-13T11:46:58;95656.25;;;21.80;47.93
79799;BME280;69283;48.024;11.090;2023-07-13T11:49:30;95660.56;;;21.81;45.94
79799;BME280;69283;48.024;11.090;2023-07-13T11:51:57;95657.81;;;21.81;47.24
79799;BME280;69283;48.024;11.090;2023-07-13T11:54:29;95661.75;;;21.80;47.64
79799;BME280;69283;48.024;11.090;2023-07-13T11:57:01;95656.25;;;21.80;48.02
79799;BME280;69283;48.024;11.090;2023-07-13T11:59:32;95649.94;;;21.83;48.56
79799;BME280;69283;48.024;11.090;2023-07-13T12:01:58;95646.78;;;21.85;47.61
79799;BME280;69283;48.024;11.090;2023-07-13T12:04:27;95654.28;;;21.84;48.46
79799;BME280;69283;48.024;11.090;2023-07-13T12:07:08;95649.94;;;21.83;46.79
79799;BME280;69283;48.024;11.090;2023-07-13T12:09:39;95651.13;;;21.82;48.00
79799;BME280;69283;48.024;11.090;2023-07-13T12:12:11;95644.44;;;21.76;47.70
79799;BME280;69283;48.024;11.090;2023-07-13T12:14:36;95647.97;;;21.84;48.29
79799;BME280;69283;48.024;11.090;2023-07-13T12:17:09;95640.81;;;21.94;47.52
79799;BME280;69283;48.024;11.090;2023-07-13T12:19:36;95643.19;;;21.92;48.73
79799;BME280;69283;48.024;11.090;2023-07-13T12:22:01;95634.16;;;21.88;47.39
79799;BME280;69283;48.024;11.090;2023-07-13T12:24:27;95632.63;;;21.83;48.66
79799;BME280;69283;48.024;11.090;2023-07-13T12:27:03;95628.25;;;21.89;46.57
79799;BME280;69283;48.024;11.090;2023-07-13T12:29:31;95632.91;;;21.99;49.92
79799;BME280;69283;48.024;11.090;2023-07-13T12:31:57;95630.56;;;21.94;47.99
79799;BME280;69283;48.024;11.090;2023-07-13T12:34:25;95632.94;;;21.96;47.37
79799;BME280;69283;48.024;11.090;2023-07-13T12:36:54;95629.41;;;21.92;47.18
79799;BME280;69283;48.024;11.090;2023-07-13T12:39:36;95623.88;;;21.92;46.54
79799;BME280;69283;48.024;11.090;2023-07-13T12:44:57;95619.09;;;21.99;48.39
79799;BME280;69283;48.024;11.090;2023-07-13T12:47:24;95612.78;;;22.09;48.77
79799;BME280;69283;48.024;11.090;2023-07-13T12:49:59;95615.84;;;22.22;48.40
79799;BME280;69283;48.024;11.090;2023-07-13T12:52:31;95615.81;;;22.29;48.09
79799;BME280;69283;48.024;11.090;2023-07-13T12:55:04;95616.56;;;22.33;47.20
79799;BME280;69283;48.024;11.090;2023-07-13T12:57:30;95618.13;;;22.34;48.00
79799;BME280;69283;48.024;11.090;2023-07-13T12:59:56;95627.63;;;22.30;46.67
79799;BME280;69283;48.024;11.090;2023-07-13T13:02:33;95625.31;;;22.25;49.88
79799;BME280;69283;48.024;11.090;2023-07-13T13:05:01;95624.94;;;22.23;45.75
79799;BME280;69283;48.024;11.090;2023-07-13T13:07:28;95622.09;;;22.30;46.34
79799;BME280;69283;48.024;11.090;2023-07-13T13:09:54;95625.28;;;22.28;46.43
79799;BME280;69283;48.024;11.090;2023-07-13T13:12:20;95626.84;;;22.29;45.80
79799;BME280;69283;48.024;11.090;2023-07-13T13:14:45;95627.59;;;22.33;45.37